Gemmell, Minnesota
Current Conditions -  °F | °C
As of 12:14 AM on Tuesday 21 Oct 2014 (Local Time) from KVWU Reporting Station
Clear Clear  
Wind Chill: -1°   Ceiling: Unl
Heat Index: -1°   Visibility: 10mi
Dew Point: -2°   Wind: 0mph
Humidity: 93%   Direction: NA
Pressure: 30.11"   Gusts: NA
Location:  47.9892°N, 94.2138°W
Report Text: KVWU 210514Z AUTO 00000KT 10SM CLR M01/M02 A3011 RMK AO2
Loading
Personal Weather Stations






























Interactive Weather Map
Tropical Storm Tracking
New forecast layout! Learn more

10-Day Weather Forecast

Advertisements
Track Severe Weather on mobile